sensor_id;sensor_type;location;lat;lon;timestamp;temperature;humidity
3053;DHT22;1536;51.098;6.414;2022-07-29T00:00:30;21.50;83.10
3053;DHT22;1536;51.098;6.414;2022-07-29T00:02:57;21.50;83.00
3053;DHT22;1536;51.098;6.414;2022-07-29T00:05:24;21.50;82.70
3053;DHT22;1536;51.098;6.414;2022-07-29T00:07:51;21.50;82.60
3053;DHT22;1536;51.098;6.414;2022-07-29T00:10:18;21.50;82.30
3053;DHT22;1536;51.098;6.414;2022-07-29T00:12:45;21.50;82.00
3053;DHT22;1536;51.098;6.414;2022-07-29T00:15:13;21.50;82.00
3053;DHT22;1536;51.098;6.414;2022-07-29T00:17:40;21.50;82.00
3053;DHT22;1536;51.098;6.414;2022-07-29T00:20:08;21.50;81.90
3053;DHT22;1536;51.098;6.414;2022-07-29T00:22:37;21.50;82.00
3053;DHT22;1536;51.098;6.414;2022-07-29T00:25:04;21.40;82.30
3053;DHT22;1536;51.098;6.414;2022-07-29T00:27:31;21.50;82.40
3053;DHT22;1536;51.098;6.414;2022-07-29T00:29:58;21.50;82.50
3053;DHT22;1536;51.098;6.414;2022-07-29T00:32:26;21.50;83.00
3053;DHT22;1536;51.098;6.414;2022-07-29T00:34:53;21.50;83.30
3053;DHT22;1536;51.098;6.414;2022-07-29T00:37:37;21.40;83.40
3053;DHT22;1536;51.098;6.414;2022-07-29T00:40:05;21.40;83.10
3053;DHT22;1536;51.098;6.414;2022-07-29T00:42:41;21.40;83.20
3053;DHT22;1536;51.098;6.414;2022-07-29T00:45:09;21.40;83.60
3053;DHT22;1536;51.098;6.414;2022-07-29T00:47:37;21.40;84.00
3053;DHT22;1536;51.098;6.414;2022-07-29T00:50:06;21.40;83.70
3053;DHT22;1536;51.098;6.414;2022-07-29T00:52:34;21.40;83.80
3053;DHT22;1536;51.098;6.414;2022-07-29T00:55:02;21.40;84.30
3053;DHT22;1536;51.098;6.414;2022-07-29T00:57:29;21.30;85.00
3053;DHT22;1536;51.098;6.414;2022-07-29T00:59:56;21.30;85.30
3053;DHT22;1536;51.098;6.414;2022-07-29T01:02:23;21.20;85.00
3053;DHT22;1536;51.098;6.414;2022-07-29T01:04:51;21.20;85.20
3053;DHT22;1536;51.098;6.414;2022-07-29T01:07:19;21.10;85.30
3053;DHT22;1536;51.098;6.414;2022-07-29T01:09:46;21.10;85.40
3053;DHT22;1536;51.098;6.414;2022-07-29T01:12:16;21.10;85.20
3053;DHT22;1536;51.098;6.414;2022-07-29T01:14:44;21.10;85.20
3053;DHT22;1536;51.098;6.414;2022-07-29T01:17:14;21.10;85.40
3053;DHT22;1536;51.098;6.414;2022-07-29T01:19:48;21.10;85.50
3053;DHT22;1536;51.098;6.414;2022-07-29T01:22:26;21.00;85.20
3053;DHT22;1536;51.098;6.414;2022-07-29T01:25:20;21.00;84.90
3053;DHT22;1536;51.098;6.414;2022-07-29T01:28:01;21.00;85.10
3053;DHT22;1536;51.098;6.414;2022-07-29T01:30:35;21.00;85.10
3053;DHT22;1536;51.098;6.414;2022-07-29T01:33:09;21.00;85.60
3053;DHT22;1536;51.098;6.414;2022-07-29T01:35:38;20.90;85.30
3053;DHT22;1536;51.098;6.414;2022-07-29T01:38:09;20.90;85.50
3053;DHT22;1536;51.098;6.414;2022-07-29T01:40:43;20.90;86.30
3053;DHT22;1536;51.098;6.414;2022-07-29T01:43:14;20.90;86.50
3053;DHT22;1536;51.098;6.414;2022-07-29T01:45:48;20.90;86.10
3053;DHT22;1536;51.098;6.414;2022-07-29T01:48:21;20.80;85.80
3053;DHT22;1536;51.098;6.414;2022-07-29T01:50:52;20.80;85.60
3053;DHT22;1536;51.098;6.414;2022-07-29T01:53:25;20.70;85.60
3053;DHT22;1536;51.098;6.414;2022-07-29T01:55:53;20.70;85.80
3053;DHT22;1536;51.098;6.414;2022-07-29T01:58:21;20.60;85.90
3053;DHT22;1536;51.098;6.414;2022-07-29T02:00:50;20.60;85.70
3053;DHT22;1536;51.098;6.414;2022-07-29T02:03:18;20.60;85.90
3053;DHT22;1536;51.098;6.414;2022-07-29T02:05:46;20.60;85.90
3053;DHT22;1536;51.098;6.414;2022-07-29T02:08:15;20.50;85.80
3053;DHT22;1536;51.098;6.414;2022-07-29T02:10:45;20.50;85.40
3053;DHT22;1536;51.098;6.414;2022-07-29T02:13:12;20.40;85.50
3053;DHT22;1536;51.098;6.414;2022-07-29T02:15:42;20.30;85.70
3053;DHT22;1536;51.098;6.414;2022-07-29T02:18:14;20.30;85.40
3053;DHT22;1536;51.098;6.414;2022-07-29T02:20:44;20.30;85.40
3053;DHT22;1536;51.098;6.414;2022-07-29T02:23:12;20.30;85.40
3053;DHT22;1536;51.098;6.414;2022-07-29T02:25:42;20.40;86.30
3053;DHT22;1536;51.098;6.414;2022-07-29T02:28:09;20.30;85.40
3053;DHT22;1536;51.098;6.414;2022-07-29T02:30:38;20.30;85.40
3053;DHT22;1536;51.098;6.414;2022-07-29T02:33:10;20.30;85.40
3053;DHT22;1536;51.098;6.414;2022-07-29T02:35:40;20.30;85.60
3053;DHT22;1536;51.098;6.414;2022-07-29T02:38:08;20.30;85.80
3053;DHT22;1536;51.098;6.414;2022-07-29T02:40:53;20.30;86.00
3053;DHT22;1536;51.098;6.414;2022-07-29T02:43:22;20.30;85.90
3053;DHT22;1536;51.098;6.414;2022-07-29T02:45:52;20.40;86.10
3053;DHT22;1536;51.098;6.414;2022-07-29T02:48:27;20.40;86.30
3053;DHT22;1536;51.098;6.414;2022-07-29T02:51:04;20.30;86.40
3053;DHT22;1536;51.098;6.414;2022-07-29T02:53:33;20.30;87.10
3053;DHT22;1536;51.098;6.414;2022-07-29T02:56:06;20.20;87.10
3053;DHT22;1536;51.098;6.414;2022-07-29T02:58:37;20.20;87.10
3053;DHT22;1536;51.098;6.414;2022-07-29T03:01:11;20.10;87.20
3053;DHT22;1536;51.098;6.414;2022-07-29T03:03:42;20.10;87.90
3053;DHT22;1536;51.098;6.414;2022-07-29T03:06:12;20.00;90.00
3053;DHT22;1536;51.098;6.414;2022-07-29T03:08:40;20.00;90.30
3053;DHT22;1536;51.098;6.414;2022-07-29T03:11:08;19.90;90.80
3053;DHT22;1536;51.098;6.414;2022-07-29T03:13:36;19.90;90.60
3053;DHT22;1536;51.098;6.414;2022-07-29T03:16:04;19.80;91.00
3053;DHT22;1536;51.098;6.414;2022-07-29T03:18:31;19.70;91.60
3053;DHT22;1536;51.098;6.414;2022-07-29T03:20:59;19.70;91.40
3053;DHT22;1536;51.098;6.414;2022-07-29T03:23:43;19.60;91.90
3053;DHT22;1536;51.098;6.414;2022-07-29T03:26:10;19.50;92.20
3053;DHT22;1536;51.098;6.414;2022-07-29T03:28:37;19.50;93.20
3053;DHT22;1536;51.098;6.414;2022-07-29T03:31:03;19.40;93.30
3053;DHT22;1536;51.098;6.414;2022-07-29T03:33:30;19.40;93.90
3053;DHT22;1536;51.098;6.414;2022-07-29T03:35:57;19.30;94.40
3053;DHT22;1536;51.098;6.414;2022-07-29T03:38:29;19.30;94.60
3053;DHT22;1536;51.098;6.414;2022-07-29T03:40:58;19.30;95.10
3053;DHT22;1536;51.098;6.414;2022-07-29T03:43:29;19.20;95.30
3053;DHT22;1536;51.098;6.414;2022-07-29T03:45:57;19.20;95.40
3053;DHT22;1536;51.098;6.414;2022-07-29T03:48:26;19.20;95.70
3053;DHT22;1536;51.098;6.414;2022-07-29T03:50:55;19.20;96.00
3053;DHT22;1536;51.098;6.414;2022-07-29T03:53:22;19.20;96.10
3053;DHT22;1536;51.098;6.414;2022-07-29T03:55:58;19.10;96.30
3053;DHT22;1536;51.098;6.414;2022-07-29T03:58:26;19.10;96.50
3053;DHT22;1536;51.098;6.414;2022-07-29T04:00:54;19.00;96.80
3053;DHT22;1536;51.098;6.414;2022-07-29T04:03:21;19.00;97.30
3053;DHT22;1536;51.098;6.414;2022-07-29T04:05:58;19.00;97.70
3053;DHT22;1536;51.098;6.414;2022-07-29T04:08:25;19.00;98.00
3053;DHT22;1536;51.098;6.414;2022-07-29T04:10:54;18.90;98.20
3053;DHT22;1536;51.098;6.414;2022-07-29T04:13:21;18.90;98.60
3053;DHT22;1536;51.098;6.414;2022-07-29T04:15:47;18.90;98.90
3053;DHT22;1536;51.098;6.414;2022-07-29T04:18:15;18.80;99.10
3053;DHT22;1536;51.098;6.414;2022-07-29T04:20:42;18.80;99.30
3053;DHT22;1536;51.098;6.414;2022-07-29T04:23:09;18.80;99.60
3053;DHT22;1536;51.098;6.414;2022-07-29T04:25:37;18.80;99.80
3053;DHT22;1536;51.098;6.414;2022-07-29T04:28:06;18.80;99.90
3053;DHT22;1536;51.098;6.414;2022-07-29T04:30:34;18.80;99.90
3053;DHT22;1536;51.098;6.414;2022-07-29T04:33:02;18.80;99.90
3053;DHT22;1536;51.098;6.414;2022-07-29T04:35:30;18.80;99.90
3053;DHT22;1536;51.098;6.414;2022-07-29T04:37:59;18.80;99.90
3053;DHT22;1536;51.098;6.414;2022-07-29T04:40:27;18.70;99.90
3053;DHT22;1536;51.098;6.414;2022-07-29T04:42:54;18.70;99.90
3053;DHT22;1536;51.098;6.414;2022-07-29T04:45:22;18.70;99.90
3053;DHT22;1536;51.098;6.414;2022-07-29T04:47:50;18.70;99.90
3053;DHT22;1536;51.098;6.414;2022-07-29T04:50:17;18.70;99.90
3053;DHT22;1536;51.098;6.414;2022-07-29T04:52:44;18.70;99.90
3053;DHT22;1536;51.098;6.414;2022-07-29T04:55:10;18.70;99.90
3053;DHT22;1536;51.098;6.414;2022-07-29T04:57:37;18.60;99.90
3053;DHT22;1536;51.098;6.414;2022-07-29T05:00:05;18.70;99.90
3053;DHT22;1536;51.098;6.414;2022-07-29T05:02:34;18.70;99.90
3053;DHT22;1536;51.098;6.414;2022-07-29T05:05:01;18.80;99.90
3053;DHT22;1536;51.098;6.414;2022-07-29T05:07:28;18.80;99.90
3053;DHT22;1536;51.098;6.414;2022-07-29T05:09:55;18.80;99.90
3053;DHT22;1536;51.098;6.414;2022-07-29T05:12:22;18.80;99.90
3053;DHT22;1536;51.098;6.414;2022-07-29T05:14:49;18.90;99.90
3053;DHT22;1536;51.098;6.414;2022-07-29T05:17:16;18.90;99.90
3053;DHT22;1536;51.098;6.414;2022-07-29T05:19:45;18.90;99.90
3053;DHT22;1536;51.098;6.414;2022-07-29T05:22:12;19.00;99.90
3053;DHT22;1536;51.098;6.414;2022-07-29T05:24:39;19.00;99.90
3053;DHT22;1536;51.098;6.414;2022-07-29T05:27:06;19.00;99.90
3053;DHT22;1536;51.098;6.414;2022-07-29T05:29:32;19.00;99.90
3053;DHT22;1536;51.098;6.414;2022-07-29T05:31:59;19.10;99.90
3053;DHT22;1536;51.098;6.414;2022-07-29T05:34:26;19.10;99.90
3053;DHT22;1536;51.098;6.414;2022-07-29T05:36:54;19.10;99.90
3053;DHT22;1536;51.098;6.414;2022-07-29T05:39:21;19.10;99.90
3053;DHT22;1536;51.098;6.414;2022-07-29T05:41:48;19.10;99.90
3053;DHT22;1536;51.098;6.414;2022-07-29T05:44:15;19.20;99.90
3053;DHT22;1536;51.098;6.414;2022-07-29T05:46:42;19.20;99.90
3053;DHT22;1536;51.098;6.414;2022-07-29T05:49:09;19.20;99.90
3053;DHT22;1536;51.098;6.414;2022-07-29T05:51:36;19.20;99.90
3053;DHT22;1536;51.098;6.414;2022-07-29T05:54:04;19.20;99.90
3053;DHT22;1536;51.098;6.414;2022-07-29T05:56:31;19.20;99.90
3053;DHT22;1536;51.098;6.414;2022-07-29T05:58:58;19.30;99.90
3053;DHT22;1536;51.098;6.414;2022-07-29T06:01:25;19.30;99.90
3053;DHT22;1536;51.098;6.414;2022-07-29T06:04:05;19.30;99.90
3053;DHT22;1536;51.098;6.414;2022-07-29T06:06:33;19.30;99.90
3053;DHT22;1536;51.098;6.414;2022-07-29T06:09:00;19.30;99.90
3053;DHT22;1536;51.098;6.414;2022-07-29T06:11:28;19.30;99.90
3053;DHT22;1536;51.098;6.414;2022-07-29T06:13:54;19.30;99.90
3053;DHT22;1536;51.098;6.414;2022-07-29T06:16:21;19.30;99.90
3053;DHT22;1536;51.098;6.414;2022-07-29T06:18:48;19.30;99.90
3053;DHT22;1536;51.098;6.414;2022-07-29T06:21:15;19.40;99.90
3053;DHT22;1536;51.098;6.414;2022-07-29T06:23:42;19.40;99.90
3053;DHT22;1536;51.098;6.414;2022-07-29T06:26:09;19.40;99.90
3053;DHT22;1536;51.098;6.414;2022-07-29T06:28:37;19.50;99.90
3053;DHT22;1536;51.098;6.414;2022-07-29T06:31:05;19.40;99.90
3053;DHT22;1536;51.098;6.414;2022-07-29T06:33:31;19.40;99.90
3053;DHT22;1536;51.098;6.414;2022-07-29T06:35:58;19.40;99.90
3053;DHT22;1536;51.098;6.414;2022-07-29T06:38:26;19.40;99.90
3053;DHT22;1536;51.098;6.414;2022-07-29T06:40:52;19.40;99.90
3053;DHT22;1536;51.098;6.414;2022-07-29T06:43:30;19.40;99.90
3053;DHT22;1536;51.098;6.414;2022-07-29T06:46:01;19.30;99.90
3053;DHT22;1536;51.098;6.414;2022-07-29T06:48:29;19.30;99.90
3053;DHT22;1536;51.098;6.414;2022-07-29T06:50:56;19.40;99.90
3053;DHT22;1536;51.098;6.414;2022-07-29T06:53:23;19.30;99.90
3053;DHT22;1536;51.098;6.414;2022-07-29T06:55:50;19.30;99.90
3053;DHT22;1536;51.098;6.414;2022-07-29T06:58:17;19.30;99.90
3053;DHT22;1536;51.098;6.414;2022-07-29T07:00:46;19.20;99.90
3053;DHT22;1536;51.098;6.414;2022-07-29T07:03:14;19.20;99.90
3053;DHT22;1536;51.098;6.414;2022-07-29T07:05:41;19.20;99.90
3053;DHT22;1536;51.098;6.414;2022-07-29T07:08:08;19.20;99.90
3053;DHT22;1536;51.098;6.414;2022-07-29T07:10:35;19.10;99.90
3053;DHT22;1536;51.098;6.414;2022-07-29T07:13:02;19.10;99.90
3053;DHT22;1536;51.098;6.414;2022-07-29T07:15:29;19.10;99.90
3053;DHT22;1536;51.098;6.414;2022-07-29T07:17:56;19.10;99.90
3053;DHT22;1536;51.098;6.414;2022-07-29T07:20:24;19.20;99.90
3053;DHT22;1536;51.098;6.414;2022-07-29T07:22:51;19.20;99.90
3053;DHT22;1536;51.098;6.414;2022-07-29T07:25:18;19.30;99.90
3053;DHT22;1536;51.098;6.414;2022-07-29T07:27:45;19.40;99.90
3053;DHT22;1536;51.098;6.414;2022-07-29T07:30:12;19.40;99.90
3053;DHT22;1536;51.098;6.414;2022-07-29T07:32:40;19.50;99.90
3053;DHT22;1536;51.098;6.414;2022-07-29T07:35:08;19.50;99.90
3053;DHT22;1536;51.098;6.414;2022-07-29T07:37:36;19.50;99.90
3053;DHT22;1536;51.098;6.414;2022-07-29T07:40:04;19.50;99.90
3053;DHT22;1536;51.098;6.414;2022-07-29T07:42:31;19.50;99.90
3053;DHT22;1536;51.098;6.414;2022-07-29T07:44:58;19.50;99.90
3053;DHT22;1536;51.098;6.414;2022-07-29T07:47:25;19.50;99.90
3053;DHT22;1536;51.098;6.414;2022-07-29T07:49:53;19.50;99.90
3053;DHT22;1536;51.098;6.414;2022-07-29T07:52:21;19.50;99.90
3053;DHT22;1536;51.098;6.414;2022-07-29T07:54:49;19.60;99.90
3053;DHT22;1536;51.098;6.414;2022-07-29T07:57:17;19.60;99.90
3053;DHT22;1536;51.098;6.414;2022-07-29T07:59:44;19.70;99.90
3053;DHT22;1536;51.098;6.414;2022-07-29T08:02:10;19.70;99.90
3053;DHT22;1536;51.098;6.414;2022-07-29T08:04:37;19.70;99.90
3053;DHT22;1536;51.098;6.414;2022-07-29T08:07:06;19.70;99.90
3053;DHT22;1536;51.098;6.414;2022-07-29T08:09:34;19.70;99.90
3053;DHT22;1536;51.098;6.414;2022-07-29T08:12:03;19.70;99.90
3053;DHT22;1536;51.098;6.414;2022-07-29T08:14:31;19.70;99.90
3053;DHT22;1536;51.098;6.414;2022-07-29T08:16:58;19.80;99.90
3053;DHT22;1536;51.098;6.414;2022-07-29T08:19:25;19.80;99.90
3053;DHT22;1536;51.098;6.414;2022-07-29T08:21:52;19.80;99.90
3053;DHT22;1536;51.098;6.414;2022-07-29T08:24:20;19.80;99.90
3053;DHT22;1536;51.098;6.414;2022-07-29T08:27:05;19.80;99.90
3053;DHT22;1536;51.098;6.414;2022-07-29T08:29:32;19.80;99.90
3053;DHT22;1536;51.098;6.414;2022-07-29T08:31:59;19.90;99.90
3053;DHT22;1536;51.098;6.414;2022-07-29T08:34:26;19.80;99.90
3053;DHT22;1536;51.098;6.414;2022-07-29T08:36:54;19.90;99.90
3053;DHT22;1536;51.098;6.414;2022-07-29T08:39:20;20.00;99.90
3053;DHT22;1536;51.098;6.414;2022-07-29T08:41:47;20.10;99.90
3053;DHT22;1536;51.098;6.414;2022-07-29T08:44:17;20.20;99.90
3053;DHT22;1536;51.098;6.414;2022-07-29T08:46:45;20.20;99.90
3053;DHT22;1536;51.098;6.414;2022-07-29T08:49:11;20.20;99.90
3053;DHT22;1536;51.098;6.414;2022-07-29T08:51:40;20.30;99.90
3053;DHT22;1536;51.098;6.414;2022-07-29T08:54:08;20.40;99.90
3053;DHT22;1536;51.098;6.414;2022-07-29T08:56:35;20.40;99.90
3053;DHT22;1536;51.098;6.414;2022-07-29T08:59:03;20.40;99.90
3053;DHT22;1536;51.098;6.414;2022-07-29T09:01:33;20.40;99.90
3053;DHT22;1536;51.098;6.414;2022-07-29T09:04:01;20.40;99.90
3053;DHT22;1536;51.098;6.414;2022-07-29T09:06:32;20.50;99.90
3053;DHT22;1536;51.098;6.414;2022-07-29T09:09:01;20.60;99.90
3053;DHT22;1536;51.098;6.414;2022-07-29T09:11:28;20.80;99.90
3053;DHT22;1536;51.098;6.414;2022-07-29T09:13:54;20.90;99.90
3053;DHT22;1536;51.098;6.414;2022-07-29T09:16:21;21.00;99.90
3053;DHT22;1536;51.098;6.414;2022-07-29T09:18:49;21.20;99.90
3053;DHT22;1536;51.098;6.414;2022-07-29T09:21:17;21.30;99.90
3053;DHT22;1536;51.098;6.414;2022-07-29T09:24:05;21.40;99.90
3053;DHT22;1536;51.098;6.414;2022-07-29T09:26:33;21.60;99.90
3053;DHT22;1536;51.098;6.414;2022-07-29T09:29:08;21.60;99.90
3053;DHT22;1536;51.098;6.414;2022-07-29T09:31:38;21.60;99.90
3053;DHT22;1536;51.098;6.414;2022-07-29T09:34:08;21.60;99.90
3053;DHT22;1536;51.098;6.414;2022-07-29T09:36:39;21.60;99.90
3053;DHT22;1536;51.098;6.414;2022-07-29T09:39:06;21.70;99.90
3053;DHT22;1536;51.098;6.414;2022-07-29T09:41:44;21.80;99.90
3053;DHT22;1536;51.098;6.414;2022-07-29T09:44:11;21.90;99.90
3053;DHT22;1536;51.098;6.414;2022-07-29T09:46:38;21.90;99.90
3053;DHT22;1536;51.098;6.414;2022-07-29T09:49:08;22.10;99.90
3053;DHT22;1536;51.098;6.414;2022-07-29T09:51:36;22.20;99.90
3053;DHT22;1536;51.098;6.414;2022-07-29T09:54:21;22.30;99.90
3053;DHT22;1536;51.098;6.414;2022-07-29T09:56:49;22.40;99.80
3053;DHT22;1536;51.098;6.414;2022-07-29T09:59:16;22.50;99.30
3053;DHT22;1536;51.098;6.414;2022-07-29T10:01:43;22.40;98.40
3053;DHT22;1536;51.098;6.414;2022-07-29T10:04:11;22.40;98.40
3053;DHT22;1536;51.098;6.414;2022-07-29T10:06:55;22.40;98.70
3053;DHT22;1536;51.098;6.414;2022-07-29T10:09:23;22.40;99.00
3053;DHT22;1536;51.098;6.414;2022-07-29T10:12:03;22.40;99.20
3053;DHT22;1536;51.098;6.414;2022-07-29T10:14:31;22.40;99.30
3053;DHT22;1536;51.098;6.414;2022-07-29T10:16:59;22.40;99.30
3053;DHT22;1536;51.098;6.414;2022-07-29T10:19:29;22.40;99.20
3053;DHT22;1536;51.098;6.414;2022-07-29T10:21:57;22.40;99.20
3053;DHT22;1536;51.098;6.414;2022-07-29T10:24:25;22.40;99.20
3053;DHT22;1536;51.098;6.414;2022-07-29T10:26:54;22.30;99.30
3053;DHT22;1536;51.098;6.414;2022-07-29T10:29:23;22.30;99.70
3053;DHT22;1536;51.098;6.414;2022-07-29T10:40:39;22.50;99.90
3053;DHT22;1536;51.098;6.414;2022-07-29T10:43:31;22.50;99.90
3053;DHT22;1536;51.098;6.414;2022-07-29T10:46:02;22.60;99.90
3053;DHT22;1536;51.098;6.414;2022-07-29T10:48:29;22.70;99.60
3053;DHT22;1536;51.098;6.414;2022-07-29T10:51:00;22.70;99.60
3053;DHT22;1536;51.098;6.414;2022-07-29T10:53:46;22.70;99.70
3053;DHT22;1536;51.098;6.414;2022-07-29T10:56:34;22.70;99.70
3053;DHT22;1536;51.098;6.414;2022-07-29T10:59:22;22.70;99.70
3053;DHT22;1536;51.098;6.414;2022-07-29T11:01:53;22.70;99.80
3053;DHT22;1536;51.098;6.414;2022-07-29T11:07:24;22.60;99.20
3053;DHT22;1536;51.098;6.414;2022-07-29T11:10:21;22.60;99.40
3053;DHT22;1536;51.098;6.414;2022-07-29T11:12:49;22.60;99.70
3053;DHT22;1536;51.098;6.414;2022-07-29T11:15:19;22.50;99.40
3053;DHT22;1536;51.098;6.414;2022-07-29T11:18:04;22.50;99.40
3053;DHT22;1536;51.098;6.414;2022-07-29T11:20:34;22.60;99.30
3053;DHT22;1536;51.098;6.414;2022-07-29T11:23:18;22.60;99.30
3053;DHT22;1536;51.098;6.414;2022-07-29T11:25:45;22.60;99.20
3053;DHT22;1536;51.098;6.414;2022-07-29T11:28:15;22.70;99.70
3053;DHT22;1536;51.098;6.414;2022-07-29T11:30:50;22.70;99.80
3053;DHT22;1536;51.098;6.414;2022-07-29T11:33:28;22.80;99.90
3053;DHT22;1536;51.098;6.414;2022-07-29T11:36:08;22.80;99.20
3053;DHT22;1536;51.098;6.414;2022-07-29T11:38:37;22.80;99.20
3053;DHT22;1536;51.098;6.414;2022-07-29T11:41:24;22.80;99.20
3053;DHT22;1536;51.098;6.414;2022-07-29T11:43:52;22.90;99.60
3053;DHT22;1536;51.098;6.414;2022-07-29T11:46:42;22.90;99.60
3053;DHT22;1536;51.098;6.414;2022-07-29T11:49:10;23.00;99.60
3053;DHT22;1536;51.098;6.414;2022-07-29T11:51:38;23.10;99.90
3053;DHT22;1536;51.098;6.414;2022-07-29T11:54:09;23.30;99.80
3053;DHT22;1536;51.098;6.414;2022-07-29T11:56:40;23.40;99.90
3053;DHT22;1536;51.098;6.414;2022-07-29T11:59:10;23.40;99.20
3053;DHT22;1536;51.098;6.414;2022-07-29T12:01:37;23.30;99.10
3053;DHT22;1536;51.098;6.414;2022-07-29T12:04:17;23.40;98.80
3053;DHT22;1536;51.098;6.414;2022-07-29T12:06:49;23.40;99.10
3053;DHT22;1536;51.098;6.414;2022-07-29T12:09:17;23.50;99.40
3053;DHT22;1536;51.098;6.414;2022-07-29T12:11:46;23.60;99.60
3053;DHT22;1536;51.098;6.414;2022-07-29T12:14:27;23.70;99.80
3053;DHT22;1536;51.098;6.414;2022-07-29T12:16:54;23.90;99.80
3053;DHT22;1536;51.098;6.414;2022-07-29T12:19:21;24.00;99.90
3053;DHT22;1536;51.098;6.414;2022-07-29T12:21:49;24.10;98.80
3053;DHT22;1536;51.098;6.414;2022-07-29T12:24:18;24.10;98.50
3053;DHT22;1536;51.098;6.414;2022-07-29T12:26:52;24.10;98.40
3053;DHT22;1536;51.098;6.414;2022-07-29T12:29:19;24.20;98.40
3053;DHT22;1536;51.098;6.414;2022-07-29T12:31:46;24.30;98.30
3053;DHT22;1536;51.098;6.414;2022-07-29T12:34:15;24.40;98.50
3053;DHT22;1536;51.098;6.414;2022-07-29T12:36:42;24.50;98.40
3053;DHT22;1536;51.098;6.414;2022-07-29T12:39:10;24.60;98.30
3053;DHT22;1536;51.098;6.414;2022-07-29T12:41:39;24.70;97.70
3053;DHT22;1536;51.098;6.414;2022-07-29T12:44:06;24.70;97.60
3053;DHT22;1536;51.098;6.414;2022-07-29T12:46:32;24.70;98.00
3053;DHT22;1536;51.098;6.414;2022-07-29T12:48:59;24.80;98.20
3053;DHT22;1536;51.098;6.414;2022-07-29T12:51:30;24.90;98.30
3053;DHT22;1536;51.098;6.414;2022-07-29T12:54:07;24.90;97.80
3053;DHT22;1536;51.098;6.414;2022-07-29T12:56:35;24.90;97.40
3053;DHT22;1536;51.098;6.414;2022-07-29T12:59:13;25.00;97.50
3053;DHT22;1536;51.098;6.414;2022-07-29T13:01:40;25.00;97.50
3053;DHT22;1536;51.098;6.414;2022-07-29T13:04:07;25.10;97.40
3053;DHT22;1536;51.098;6.414;2022-07-29T13:06:37;25.00;96.60
3053;DHT22;1536;51.098;6.414;2022-07-29T13:09:06;25.00;96.70
3053;DHT22;1536;51.098;6.414;2022-07-29T13:11:34;25.00;96.80
3053;DHT22;1536;51.098;6.414;2022-07-29T13:14:02;25.00;96.90
3053;DHT22;1536;51.098;6.414;2022-07-29T13:16:30;25.10;97.00
3053;DHT22;1536;51.098;6.414;2022-07-29T13:19:08;25.10;97.10
3053;DHT22;1536;51.098;6.414;2022-07-29T13:21:35;25.20;96.20
3053;DHT22;1536;51.098;6.414;2022-07-29T13:24:02;25.20;96.10
3053;DHT22;1536;51.098;6.414;2022-07-29T13:26:29;25.30;95.70
3053;DHT22;1536;51.098;6.414;2022-07-29T13:28:55;25.30;96.00
3053;DHT22;1536;51.098;6.414;2022-07-29T13:31:22;25.40;95.90
3053;DHT22;1536;51.098;6.414;2022-07-29T13:33:51;25.40;96.00
3053;DHT22;1536;51.098;6.414;2022-07-29T13:36:17;25.50;95.60
3053;DHT22;1536;51.098;6.414;2022-07-29T13:38:44;25.50;95.20
3053;DHT22;1536;51.098;6.414;2022-07-29T13:41:11;25.50;95.20
3053;DHT22;1536;51.098;6.414;2022-07-29T13:43:38;25.50;94.50
3053;DHT22;1536;51.098;6.414;2022-07-29T13:46:05;25.40;94.00
3053;DHT22;1536;51.098;6.414;2022-07-29T13:48:32;25.50;94.20
3053;DHT22;1536;51.098;6.414;2022-07-29T13:51:00;25.50;94.10
3053;DHT22;1536;51.098;6.414;2022-07-29T13:53:27;25.50;93.80
3053;DHT22;1536;51.098;6.414;2022-07-29T13:55:54;25.60;93.20
3053;DHT22;1536;51.098;6.414;2022-07-29T13:58:21;25.60;92.90
3053;DHT22;1536;51.098;6.414;2022-07-29T14:00:48;25.60;92.70
3053;DHT22;1536;51.098;6.414;2022-07-29T14:03:14;25.60;92.30
3053;DHT22;1536;51.098;6.414;2022-07-29T14:05:41;25.70;92.60
3053;DHT22;1536;51.098;6.414;2022-07-29T14:08:09;25.60;91.30
3053;DHT22;1536;51.098;6.414;2022-07-29T14:10:36;25.60;90.70
3053;DHT22;1536;51.098;6.414;2022-07-29T14:13:03;25.60;91.10
3053;DHT22;1536;51.098;6.414;2022-07-29T14:15:30;25.70;91.80
3053;DHT22;1536;51.098;6.414;2022-07-29T14:17:56;25.80;91.60
3053;DHT22;1536;51.098;6.414;2022-07-29T14:20:23;25.90;91.50
3053;DHT22;1536;51.098;6.414;2022-07-29T14:22:50;26.00;87.50
3053;DHT22;1536;51.098;6.414;2022-07-29T14:25:18;26.00;86.00
3053;DHT22;1536;51.098;6.414;2022-07-29T14:27:45;25.90;86.10
3053;DHT22;1536;51.098;6.414;2022-07-29T14:30:12;26.00;87.20
3053;DHT22;1536;51.098;6.414;2022-07-29T14:32:39;26.00;87.20
3053;DHT22;1536;51.098;6.414;2022-07-29T14:35:07;26.00;88.00
3053;DHT22;1536;51.098;6.414;2022-07-29T14:37:34;26.10;89.10
3053;DHT22;1536;51.098;6.414;2022-07-29T14:40:01;26.20;89.40
3053;DHT22;1536;51.098;6.414;2022-07-29T14:42:30;26.30;87.60
3053;DHT22;1536;51.098;6.414;2022-07-29T14:44:57;26.30;87.70
3053;DHT22;1536;51.098;6.414;2022-07-29T14:47:24;26.30;87.20
3053;DHT22;1536;51.098;6.414;2022-07-29T14:49:51;26.20;86.20
3053;DHT22;1536;51.098;6.414;2022-07-29T14:52:18;26.20;86.70
3053;DHT22;1536;51.098;6.414;2022-07-29T14:54:44;26.30;86.30
3053;DHT22;1536;51.098;6.414;2022-07-29T14:57:11;26.40;86.40
3053;DHT22;1536;51.098;6.414;2022-07-29T14:59:39;26.50;86.80
3053;DHT22;1536;51.098;6.414;2022-07-29T15:02:06;26.50;86.70
3053;DHT22;1536;51.098;6.414;2022-07-29T15:04:33;26.50;87.90
3053;DHT22;1536;51.098;6.414;2022-07-29T15:07:00;26.50;88.10
3053;DHT22;1536;51.098;6.414;2022-07-29T15:09:27;26.40;88.10
3053;DHT22;1536;51.098;6.414;2022-07-29T15:11:53;26.40;88.70
3053;DHT22;1536;51.098;6.414;2022-07-29T15:14:20;26.50;89.50
3053;DHT22;1536;51.098;6.414;2022-07-29T15:16:48;26.60;89.70
3053;DHT22;1536;51.098;6.414;2022-07-29T15:19:15;26.70;89.30
3053;DHT22;1536;51.098;6.414;2022-07-29T15:21:42;26.80;89.80
3053;DHT22;1536;51.098;6.414;2022-07-29T15:24:09;26.80;89.00
3053;DHT22;1536;51.098;6.414;2022-07-29T15:26:36;26.70;88.40
3053;DHT22;1536;51.098;6.414;2022-07-29T15:29:02;26.70;89.10
3053;DHT22;1536;51.098;6.414;2022-07-29T15:31:29;26.60;89.80
3053;DHT22;1536;51.098;6.414;2022-07-29T15:33:57;26.60;90.10
3053;DHT22;1536;51.098;6.414;2022-07-29T15:36:24;26.60;90.30
3053;DHT22;1536;51.098;6.414;2022-07-29T15:38:52;26.60;90.40
3053;DHT22;1536;51.098;6.414;2022-07-29T15:41:20;26.70;90.80
3053;DHT22;1536;51.098;6.414;2022-07-29T15:43:47;26.70;90.70
3053;DHT22;1536;51.098;6.414;2022-07-29T15:46:17;26.70;90.90
3053;DHT22;1536;51.098;6.414;2022-07-29T15:49:04;26.60;90.80
3053;DHT22;1536;51.098;6.414;2022-07-29T15:51:31;26.60;90.80
3053;DHT22;1536;51.098;6.414;2022-07-29T15:53:59;26.50;90.80
3053;DHT22;1536;51.098;6.414;2022-07-29T15:56:26;26.50;90.90
3053;DHT22;1536;51.098;6.414;2022-07-29T15:58:53;26.60;91.10
3053;DHT22;1536;51.098;6.414;2022-07-29T16:01:20;26.70;91.60
3053;DHT22;1536;51.098;6.414;2022-07-29T16:03:47;26.80;91.60
3053;DHT22;1536;51.098;6.414;2022-07-29T16:06:15;26.90;91.50
3053;DHT22;1536;51.098;6.414;2022-07-29T16:08:42;27.00;91.40
3053;DHT22;1536;51.098;6.414;2022-07-29T16:11:09;27.00;91.50
3053;DHT22;1536;51.098;6.414;2022-07-29T16:13:36;27.10;91.30
3053;DHT22;1536;51.098;6.414;2022-07-29T16:16:03;27.10;90.90
3053;DHT22;1536;51.098;6.414;2022-07-29T16:18:30;27.10;90.90
3053;DHT22;1536;51.098;6.414;2022-07-29T16:20:57;27.10;90.90
3053;DHT22;1536;51.098;6.414;2022-07-29T16:23:25;27.00;91.00
3053;DHT22;1536;51.098;6.414;2022-07-29T16:25:52;26.90;91.10